sensor_id;sensor_type;location;lat;lon;timestamp;temperature;humidity
871;DHT22;422;51.280;7.236;2023-02-24T00:00:14;5.50;99.90
871;DHT22;422;51.280;7.236;2023-02-24T00:03:02;5.30;99.90
871;DHT22;422;51.280;7.236;2023-02-24T00:05:36;5.30;99.90
871;DHT22;422;51.280;7.236;2023-02-24T00:08:07;5.30;99.90
871;DHT22;422;51.280;7.236;2023-02-24T00:10:34;5.30;99.90
871;DHT22;422;51.280;7.236;2023-02-24T00:13:02;5.20;99.90
871;DHT22;422;51.280;7.236;2023-02-24T00:15:29;5.10;99.90
871;DHT22;422;51.280;7.236;2023-02-24T00:17:56;5.10;99.90
871;DHT22;422;51.280;7.236;2023-02-24T00:20:25;5.10;99.90
871;DHT22;422;51.280;7.236;2023-02-24T00:22:53;5.10;99.90
871;DHT22;422;51.280;7.236;2023-02-24T00:25:20;5.00;99.90
871;DHT22;422;51.280;7.236;2023-02-24T00:27:48;5.00;99.90
871;DHT22;422;51.280;7.236;2023-02-24T00:30:15;5.00;99.90
871;DHT22;422;51.280;7.236;2023-02-24T00:32:43;5.10;99.90
871;DHT22;422;51.280;7.236;2023-02-24T00:35:10;5.10;99.90
871;DHT22;422;51.280;7.236;2023-02-24T00:37:38;5.10;99.90
871;DHT22;422;51.280;7.236;2023-02-24T00:40:07;4.90;99.90
871;DHT22;422;51.280;7.236;2023-02-24T00:42:37;4.90;99.90
871;DHT22;422;51.280;7.236;2023-02-24T00:45:08;4.90;99.90
871;DHT22;422;51.280;7.236;2023-02-24T00:47:38;4.90;99.90
871;DHT22;422;51.280;7.236;2023-02-24T00:50:06;5.00;99.90
871;DHT22;422;51.280;7.236;2023-02-24T00:52:34;4.80;99.90
871;DHT22;422;51.280;7.236;2023-02-24T00:55:04;4.70;99.90
871;DHT22;422;51.280;7.236;2023-02-24T00:57:39;4.60;99.90
871;DHT22;422;51.280;7.236;2023-02-24T01:00:08;4.60;99.90
871;DHT22;422;51.280;7.236;2023-02-24T01:02:39;4.60;99.90
871;DHT22;422;51.280;7.236;2023-02-24T01:05:10;4.60;99.90
871;DHT22;422;51.280;7.236;2023-02-24T01:07:37;4.60;99.90
871;DHT22;422;51.280;7.236;2023-02-24T01:10:09;4.70;99.90
871;DHT22;422;51.280;7.236;2023-02-24T01:12:37;4.70;99.90
871;DHT22;422;51.280;7.236;2023-02-24T01:15:04;4.60;99.90
871;DHT22;422;51.280;7.236;2023-02-24T01:17:34;4.60;99.90
871;DHT22;422;51.280;7.236;2023-02-24T01:20:03;4.70;99.90
871;DHT22;422;51.280;7.236;2023-02-24T01:22:40;4.70;99.90
871;DHT22;422;51.280;7.236;2023-02-24T01:25:09;4.60;99.90
871;DHT22;422;51.280;7.236;2023-02-24T01:27:37;4.60;99.90
871;DHT22;422;51.280;7.236;2023-02-24T01:30:06;4.60;99.90
871;DHT22;422;51.280;7.236;2023-02-24T01:32:38;4.60;99.90
871;DHT22;422;51.280;7.236;2023-02-24T01:35:06;4.60;99.90
871;DHT22;422;51.280;7.236;2023-02-24T01:37:33;4.60;99.90
871;DHT22;422;51.280;7.236;2023-02-24T01:40:01;4.60;99.90
871;DHT22;422;51.280;7.236;2023-02-24T01:42:40;4.50;99.90
871;DHT22;422;51.280;7.236;2023-02-24T01:45:18;4.50;99.90
871;DHT22;422;51.280;7.236;2023-02-24T01:47:46;4.50;99.90
871;DHT22;422;51.280;7.236;2023-02-24T01:50:16;4.40;99.90
871;DHT22;422;51.280;7.236;2023-02-24T01:52:47;4.40;99.90
871;DHT22;422;51.280;7.236;2023-02-24T01:55:19;4.40;99.90
871;DHT22;422;51.280;7.236;2023-02-24T01:57:51;4.40;99.90
871;DHT22;422;51.280;7.236;2023-02-24T02:00:20;4.40;99.90
871;DHT22;422;51.280;7.236;2023-02-24T02:03:11;4.30;99.90
871;DHT22;422;51.280;7.236;2023-02-24T02:05:40;4.30;99.90
871;DHT22;422;51.280;7.236;2023-02-24T02:08:10;4.30;99.90
871;DHT22;422;51.280;7.236;2023-02-24T02:10:39;4.40;99.90
871;DHT22;422;51.280;7.236;2023-02-24T02:13:11;4.40;99.90
871;DHT22;422;51.280;7.236;2023-02-24T02:15:46;4.40;99.90
871;DHT22;422;51.280;7.236;2023-02-24T02:18:28;4.30;99.90
871;DHT22;422;51.280;7.236;2023-02-24T02:21:13;4.30;99.90
871;DHT22;422;51.280;7.236;2023-02-24T02:23:56;4.30;99.90
871;DHT22;422;51.280;7.236;2023-02-24T02:26:49;4.30;99.90
871;DHT22;422;51.280;7.236;2023-02-24T02:29:40;4.20;99.90
871;DHT22;422;51.280;7.236;2023-02-24T02:35:18;4.10;99.90
871;DHT22;422;51.280;7.236;2023-02-24T02:37:52;4.10;99.90
871;DHT22;422;51.280;7.236;2023-02-24T02:40:26;4.20;99.90
871;DHT22;422;51.280;7.236;2023-02-24T02:43:02;4.10;99.90
871;DHT22;422;51.280;7.236;2023-02-24T02:45:37;4.10;99.90
871;DHT22;422;51.280;7.236;2023-02-24T02:48:09;4.10;99.90
871;DHT22;422;51.280;7.236;2023-02-24T02:50:44;4.10;99.90
871;DHT22;422;51.280;7.236;2023-02-24T02:53:17;4.10;99.90
871;DHT22;422;51.280;7.236;2023-02-24T02:55:52;4.10;99.90
871;DHT22;422;51.280;7.236;2023-02-24T02:58:26;4.00;99.90
871;DHT22;422;51.280;7.236;2023-02-24T03:00:57;3.90;99.90
871;DHT22;422;51.280;7.236;2023-02-24T03:03:29;3.90;99.90
871;DHT22;422;51.280;7.236;2023-02-24T03:06:02;3.90;99.90
871;DHT22;422;51.280;7.236;2023-02-24T03:08:34;3.80;99.90
871;DHT22;422;51.280;7.236;2023-02-24T03:11:03;3.80;99.90
871;DHT22;422;51.280;7.236;2023-02-24T03:13:35;3.70;99.90
871;DHT22;422;51.280;7.236;2023-02-24T03:16:04;3.60;99.90
871;DHT22;422;51.280;7.236;2023-02-24T03:18:35;3.60;99.90
871;DHT22;422;51.280;7.236;2023-02-24T03:21:07;3.60;99.90
871;DHT22;422;51.280;7.236;2023-02-24T03:23:36;3.50;99.90
871;DHT22;422;51.280;7.236;2023-02-24T03:26:10;3.50;99.90
871;DHT22;422;51.280;7.236;2023-02-24T03:28:51;3.60;99.90
871;DHT22;422;51.280;7.236;2023-02-24T03:31:23;3.50;99.90
871;DHT22;422;51.280;7.236;2023-02-24T03:33:58;3.50;99.90
871;DHT22;422;51.280;7.236;2023-02-24T03:36:30;3.50;99.90
871;DHT22;422;51.280;7.236;2023-02-24T03:38:58;3.50;99.90
871;DHT22;422;51.280;7.236;2023-02-24T03:41:31;3.50;99.90
871;DHT22;422;51.280;7.236;2023-02-24T03:44:01;3.50;99.90
871;DHT22;422;51.280;7.236;2023-02-24T03:46:30;3.50;99.90
871;DHT22;422;51.280;7.236;2023-02-24T03:49:04;3.50;99.90
871;DHT22;422;51.280;7.236;2023-02-24T03:51:34;3.50;99.90
871;DHT22;422;51.280;7.236;2023-02-24T03:54:11;3.60;99.90
871;DHT22;422;51.280;7.236;2023-02-24T03:56:46;3.50;99.90
871;DHT22;422;51.280;7.236;2023-02-24T03:59:33;3.60;99.90
871;DHT22;422;51.280;7.236;2023-02-24T04:02:05;3.50;99.90
871;DHT22;422;51.280;7.236;2023-02-24T04:04:38;3.50;99.90
871;DHT22;422;51.280;7.236;2023-02-24T04:07:13;3.40;99.90
871;DHT22;422;51.280;7.236;2023-02-24T04:09:46;3.30;99.90
871;DHT22;422;51.280;7.236;2023-02-24T04:12:18;3.30;99.90
871;DHT22;422;51.280;7.236;2023-02-24T04:14:51;3.20;99.90
871;DHT22;422;51.280;7.236;2023-02-24T04:17:26;3.20;99.90
871;DHT22;422;51.280;7.236;2023-02-24T04:19:57;3.20;99.90
871;DHT22;422;51.280;7.236;2023-02-24T04:22:27;3.20;99.90
871;DHT22;422;51.280;7.236;2023-02-24T04:24:59;3.30;99.90
871;DHT22;422;51.280;7.236;2023-02-24T04:27:27;3.20;99.90
871;DHT22;422;51.280;7.236;2023-02-24T04:29:57;3.30;99.90
871;DHT22;422;51.280;7.236;2023-02-24T04:32:31;3.30;99.90
871;DHT22;422;51.280;7.236;2023-02-24T04:35:03;3.20;99.90
871;DHT22;422;51.280;7.236;2023-02-24T04:37:33;3.30;99.90
871;DHT22;422;51.280;7.236;2023-02-24T04:40:03;3.30;99.90
871;DHT22;422;51.280;7.236;2023-02-24T04:42:35;3.40;99.90
871;DHT22;422;51.280;7.236;2023-02-24T04:45:06;3.40;99.90
871;DHT22;422;51.280;7.236;2023-02-24T04:47:37;3.30;99.90
871;DHT22;422;51.280;7.236;2023-02-24T04:50:08;3.40;99.90
871;DHT22;422;51.280;7.236;2023-02-24T04:52:49;3.30;99.90
871;DHT22;422;51.280;7.236;2023-02-24T04:55:18;3.30;99.90
871;DHT22;422;51.280;7.236;2023-02-24T04:57:47;3.30;99.90
871;DHT22;422;51.280;7.236;2023-02-24T05:00:15;3.30;99.90
871;DHT22;422;51.280;7.236;2023-02-24T05:02:47;3.30;99.90
871;DHT22;422;51.280;7.236;2023-02-24T05:05:15;3.40;99.90
871;DHT22;422;51.280;7.236;2023-02-24T05:07:42;3.40;99.90
871;DHT22;422;51.280;7.236;2023-02-24T05:10:14;3.50;99.90
871;DHT22;422;51.280;7.236;2023-02-24T05:12:43;3.50;99.90
871;DHT22;422;51.280;7.236;2023-02-24T05:15:11;3.50;99.90
871;DHT22;422;51.280;7.236;2023-02-24T05:17:38;3.50;99.90
871;DHT22;422;51.280;7.236;2023-02-24T05:20:08;3.50;99.90
871;DHT22;422;51.280;7.236;2023-02-24T05:22:52;3.40;99.90
871;DHT22;422;51.280;7.236;2023-02-24T05:25:22;3.50;99.90
871;DHT22;422;51.280;7.236;2023-02-24T05:27:51;3.40;99.90
871;DHT22;422;51.280;7.236;2023-02-24T05:30:21;3.40;99.90
871;DHT22;422;51.280;7.236;2023-02-24T05:32:48;3.40;99.90
871;DHT22;422;51.280;7.236;2023-02-24T05:35:18;3.40;99.90
871;DHT22;422;51.280;7.236;2023-02-24T05:37:48;3.40;99.90
871;DHT22;422;51.280;7.236;2023-02-24T05:40:17;3.30;99.90
871;DHT22;422;51.280;7.236;2023-02-24T05:42:46;3.30;99.90
871;DHT22;422;51.280;7.236;2023-02-24T05:45:15;3.30;99.90
871;DHT22;422;51.280;7.236;2023-02-24T05:47:43;3.30;99.90
871;DHT22;422;51.280;7.236;2023-02-24T05:50:12;3.30;99.90
871;DHT22;422;51.280;7.236;2023-02-24T05:52:39;3.30;99.90
871;DHT22;422;51.280;7.236;2023-02-24T05:55:10;3.30;99.90
871;DHT22;422;51.280;7.236;2023-02-24T05:57:38;3.30;99.90
871;DHT22;422;51.280;7.236;2023-02-24T06:00:08;3.30;99.90
871;DHT22;422;51.280;7.236;2023-02-24T06:02:40;3.30;99.90
871;DHT22;422;51.280;7.236;2023-02-24T06:05:17;3.40;99.90
871;DHT22;422;51.280;7.236;2023-02-24T06:07:57;3.30;99.90
871;DHT22;422;51.280;7.236;2023-02-24T06:10:37;3.20;99.90
871;DHT22;422;51.280;7.236;2023-02-24T06:13:06;3.20;99.90
871;DHT22;422;51.280;7.236;2023-02-24T06:15:36;3.20;99.90
871;DHT22;422;51.280;7.236;2023-02-24T06:18:03;3.30;99.90
871;DHT22;422;51.280;7.236;2023-02-24T06:20:32;3.30;99.90
871;DHT22;422;51.280;7.236;2023-02-24T06:22:59;3.40;99.90
871;DHT22;422;51.280;7.236;2023-02-24T06:25:29;3.50;99.90
871;DHT22;422;51.280;7.236;2023-02-24T06:27:57;3.50;99.90
871;DHT22;422;51.280;7.236;2023-02-24T06:30:26;3.50;99.90
871;DHT22;422;51.280;7.236;2023-02-24T06:32:55;3.60;99.90
871;DHT22;422;51.280;7.236;2023-02-24T06:35:22;3.70;99.90
871;DHT22;422;51.280;7.236;2023-02-24T06:37:49;3.70;99.90
871;DHT22;422;51.280;7.236;2023-02-24T06:40:20;3.70;99.90
871;DHT22;422;51.280;7.236;2023-02-24T06:42:50;3.70;99.90
871;DHT22;422;51.280;7.236;2023-02-24T06:45:19;3.60;99.90
871;DHT22;422;51.280;7.236;2023-02-24T06:47:46;3.70;99.90
871;DHT22;422;51.280;7.236;2023-02-24T06:50:15;3.60;99.90
871;DHT22;422;51.280;7.236;2023-02-24T06:52:44;3.50;99.90
871;DHT22;422;51.280;7.236;2023-02-24T06:55:12;3.60;99.90
871;DHT22;422;51.280;7.236;2023-02-24T06:57:52;3.70;99.90
871;DHT22;422;51.280;7.236;2023-02-24T07:00:25;3.60;99.90
871;DHT22;422;51.280;7.236;2023-02-24T07:03:06;3.60;99.90
871;DHT22;422;51.280;7.236;2023-02-24T07:05:43;3.70;99.90
871;DHT22;422;51.280;7.236;2023-02-24T07:08:16;3.80;99.90
871;DHT22;422;51.280;7.236;2023-02-24T07:10:44;3.80;99.90
871;DHT22;422;51.280;7.236;2023-02-24T07:13:13;3.70;99.90
871;DHT22;422;51.280;7.236;2023-02-24T07:15:40;3.80;99.90
871;DHT22;422;51.280;7.236;2023-02-24T07:18:14;3.70;99.90
871;DHT22;422;51.280;7.236;2023-02-24T07:20:44;3.70;99.90
871;DHT22;422;51.280;7.236;2023-02-24T07:23:12;3.70;99.90
871;DHT22;422;51.280;7.236;2023-02-24T07:25:40;3.70;99.90
871;DHT22;422;51.280;7.236;2023-02-24T07:28:08;3.60;99.90
871;DHT22;422;51.280;7.236;2023-02-24T07:30:37;3.70;99.90
871;DHT22;422;51.280;7.236;2023-02-24T07:33:05;3.60;99.90
871;DHT22;422;51.280;7.236;2023-02-24T07:35:33;3.70;99.90
871;DHT22;422;51.280;7.236;2023-02-24T07:38:03;3.70;99.90
871;DHT22;422;51.280;7.236;2023-02-24T07:40:31;3.70;99.90
871;DHT22;422;51.280;7.236;2023-02-24T07:42:59;3.70;99.90
871;DHT22;422;51.280;7.236;2023-02-24T07:45:26;3.80;99.90
871;DHT22;422;51.280;7.236;2023-02-24T07:47:54;3.70;99.90
871;DHT22;422;51.280;7.236;2023-02-24T07:50:21;3.60;99.90
871;DHT22;422;51.280;7.236;2023-02-24T07:52:48;3.70;99.90
871;DHT22;422;51.280;7.236;2023-02-24T07:55:17;3.70;99.90
871;DHT22;422;51.280;7.236;2023-02-24T07:57:46;3.80;99.90
871;DHT22;422;51.280;7.236;2023-02-24T08:00:15;3.80;99.90
871;DHT22;422;51.280;7.236;2023-02-24T08:02:45;3.80;99.90
871;DHT22;422;51.280;7.236;2023-02-24T08:05:13;3.90;99.90
871;DHT22;422;51.280;7.236;2023-02-24T08:07:41;3.90;99.90
871;DHT22;422;51.280;7.236;2023-02-24T08:10:09;3.90;99.90
871;DHT22;422;51.280;7.236;2023-02-24T08:12:41;4.00;99.90
871;DHT22;422;51.280;7.236;2023-02-24T08:15:10;4.10;99.90
871;DHT22;422;51.280;7.236;2023-02-24T08:17:48;3.90;1.00
871;DHT22;422;51.280;7.236;2023-02-24T08:20:18;4.00;1.00
871;DHT22;422;51.280;7.236;2023-02-24T08:22:50;4.00;99.90
871;DHT22;422;51.280;7.236;2023-02-24T08:25:19;4.10;99.90
871;DHT22;422;51.280;7.236;2023-02-24T08:27:50;4.10;45.00
871;DHT22;422;51.280;7.236;2023-02-24T08:30:22;4.10;99.90
871;DHT22;422;51.280;7.236;2023-02-24T08:32:51;4.10;99.90
871;DHT22;422;51.280;7.236;2023-02-24T08:35:24;4.00;52.00
871;DHT22;422;51.280;7.236;2023-02-24T08:38:00;4.00;7.60
871;DHT22;422;51.280;7.236;2023-02-24T08:40:31;4.00;17.80
871;DHT22;422;51.280;7.236;2023-02-24T08:43:21;3.90;1.00
871;DHT22;422;51.280;7.236;2023-02-24T08:46:00;3.90;1.00
871;DHT22;422;51.280;7.236;2023-02-24T08:48:31;4.00;12.80
871;DHT22;422;51.280;7.236;2023-02-24T08:51:06;4.10;12.30
871;DHT22;422;51.280;7.236;2023-02-24T08:53:34;4.10;1.00
871;DHT22;422;51.280;7.236;2023-02-24T08:56:06;4.10;1.00
871;DHT22;422;51.280;7.236;2023-02-24T08:58:38;4.20;1.00
871;DHT22;422;51.280;7.236;2023-02-24T09:01:14;4.30;1.00
871;DHT22;422;51.280;7.236;2023-02-24T09:03:45;4.40;1.00
871;DHT22;422;51.280;7.236;2023-02-24T09:06:14;4.40;1.00
871;DHT22;422;51.280;7.236;2023-02-24T09:08:44;4.30;1.00
871;DHT22;422;51.280;7.236;2023-02-24T09:11:13;4.20;1.00
871;DHT22;422;51.280;7.236;2023-02-24T09:13:44;4.20;1.00
871;DHT22;422;51.280;7.236;2023-02-24T09:16:20;4.20;1.00
871;DHT22;422;51.280;7.236;2023-02-24T09:18:48;4.20;1.00
871;DHT22;422;51.280;7.236;2023-02-24T09:21:36;4.20;1.00
871;DHT22;422;51.280;7.236;2023-02-24T09:24:31;4.30;1.00
871;DHT22;422;51.280;7.236;2023-02-24T09:26:58;4.30;1.00
871;DHT22;422;51.280;7.236;2023-02-24T09:29:30;4.40;1.00
871;DHT22;422;51.280;7.236;2023-02-24T09:32:00;4.50;1.00
871;DHT22;422;51.280;7.236;2023-02-24T09:34:32;4.50;1.00
871;DHT22;422;51.280;7.236;2023-02-24T09:37:00;4.40;1.00
871;DHT22;422;51.280;7.236;2023-02-24T09:39:30;4.40;1.00
871;DHT22;422;51.280;7.236;2023-02-24T09:42:19;4.30;1.00
871;DHT22;422;51.280;7.236;2023-02-24T09:45:03;4.30;1.00
871;DHT22;422;51.280;7.236;2023-02-24T09:47:39;4.50;1.00
871;DHT22;422;51.280;7.236;2023-02-24T09:50:26;4.40;1.00
871;DHT22;422;51.280;7.236;2023-02-24T09:53:04;4.50;1.00
871;DHT22;422;51.280;7.236;2023-02-24T09:55:45;4.50;1.00
871;DHT22;422;51.280;7.236;2023-02-24T09:58:34;4.40;1.00
871;DHT22;422;51.280;7.236;2023-02-24T10:01:11;4.50;1.00
871;DHT22;422;51.280;7.236;2023-02-24T10:03:52;4.60;1.00
871;DHT22;422;51.280;7.236;2023-02-24T10:06:31;4.60;1.00
871;DHT22;422;51.280;7.236;2023-02-24T10:09:05;4.50;1.00
871;DHT22;422;51.280;7.236;2023-02-24T10:11:39;4.50;1.00
871;DHT22;422;51.280;7.236;2023-02-24T10:14:26;4.50;1.00
871;DHT22;422;51.280;7.236;2023-02-24T10:16:55;4.60;1.00
871;DHT22;422;51.280;7.236;2023-02-24T10:19:41;4.50;1.00
871;DHT22;422;51.280;7.236;2023-02-24T10:22:15;4.50;1.00
871;DHT22;422;51.280;7.236;2023-02-24T10:24:57;4.60;1.00
871;DHT22;422;51.280;7.236;2023-02-24T10:27:43;4.50;1.00
871;DHT22;422;51.280;7.236;2023-02-24T10:30:27;4.50;1.00
871;DHT22;422;51.280;7.236;2023-02-24T10:33:16;4.40;1.00
871;DHT22;422;51.280;7.236;2023-02-24T10:35:43;4.40;1.00
871;DHT22;422;51.280;7.236;2023-02-24T10:38:11;4.30;1.00
871;DHT22;422;51.280;7.236;2023-02-24T10:40:47;4.40;1.00
871;DHT22;422;51.280;7.236;2023-02-24T10:43:22;4.40;1.00
871;DHT22;422;51.280;7.236;2023-02-24T10:45:56;4.20;1.00
871;DHT22;422;51.280;7.236;2023-02-24T10:48:33;4.30;1.00
871;DHT22;422;51.280;7.236;2023-02-24T10:51:10;4.30;1.00
871;DHT22;422;51.280;7.236;2023-02-24T10:53:46;4.20;1.00
871;DHT22;422;51.280;7.236;2023-02-24T10:56:18;4.20;1.00
871;DHT22;422;51.280;7.236;2023-02-24T10:59:11;4.00;1.00
871;DHT22;422;51.280;7.236;2023-02-24T11:02:17;4.00;1.00
871;DHT22;422;51.280;7.236;2023-02-24T11:04:57;4.10;1.00
871;DHT22;422;51.280;7.236;2023-02-24T11:07:50;4.10;1.00
871;DHT22;422;51.280;7.236;2023-02-24T11:10:22;4.10;1.00
871;DHT22;422;51.280;7.236;2023-02-24T11:12:58;4.00;1.00
871;DHT22;422;51.280;7.236;2023-02-24T11:15:46;3.90;1.00
871;DHT22;422;51.280;7.236;2023-02-24T11:18:32;3.80;1.00
871;DHT22;422;51.280;7.236;2023-02-24T11:21:03;3.70;52.30
871;DHT22;422;51.280;7.236;2023-02-24T11:23:34;3.80;99.90
871;DHT22;422;51.280;7.236;2023-02-24T11:26:06;3.70;99.90
871;DHT22;422;51.280;7.236;2023-02-24T11:28:53;3.60;99.90
871;DHT22;422;51.280;7.236;2023-02-24T11:31:36;3.60;99.90
871;DHT22;422;51.280;7.236;2023-02-24T11:34:08;3.50;1.00
871;DHT22;422;51.280;7.236;2023-02-24T11:36:45;3.50;1.00
871;DHT22;422;51.280;7.236;2023-02-24T11:39:31;3.60;1.00
871;DHT22;422;51.280;7.236;2023-02-24T11:42:03;3.60;1.00
871;DHT22;422;51.280;7.236;2023-02-24T11:44:40;3.70;99.90
871;DHT22;422;51.280;7.236;2023-02-24T11:47:14;3.80;99.90
871;DHT22;422;51.280;7.236;2023-02-24T11:49:45;3.80;99.90
871;DHT22;422;51.280;7.236;2023-02-24T11:52:19;3.80;99.90
871;DHT22;422;51.280;7.236;2023-02-24T11:54:52;3.80;99.90
871;DHT22;422;51.280;7.236;2023-02-24T11:57:37;3.70;99.90
871;DHT22;422;51.280;7.236;2023-02-24T12:00:14;3.60;99.90
871;DHT22;422;51.280;7.236;2023-02-24T12:02:48;3.70;1.00
871;DHT22;422;51.280;7.236;2023-02-24T12:05:18;3.70;1.00
871;DHT22;422;51.280;7.236;2023-02-24T12:07:50;3.80;1.00
871;DHT22;422;51.280;7.236;2023-02-24T12:10:21;3.80;1.00
871;DHT22;422;51.280;7.236;2023-02-24T12:12:53;3.80;99.90
871;DHT22;422;51.280;7.236;2023-02-24T12:15:27;3.60;99.90
871;DHT22;422;51.280;7.236;2023-02-24T12:18:01;3.60;1.00
871;DHT22;422;51.280;7.236;2023-02-24T12:20:40;3.60;1.00
871;DHT22;422;51.280;7.236;2023-02-24T12:23:15;3.60;1.00
871;DHT22;422;51.280;7.236;2023-02-24T12:25:53;3.50;1.00
871;DHT22;422;51.280;7.236;2023-02-24T12:28:32;3.50;1.00
871;DHT22;422;51.280;7.236;2023-02-24T12:31:12;3.40;1.00
871;DHT22;422;51.280;7.236;2023-02-24T12:33:51;3.50;1.00
871;DHT22;422;51.280;7.236;2023-02-24T12:36:40;3.40;1.00
871;DHT22;422;51.280;7.236;2023-02-24T12:39:14;3.40;1.00
871;DHT22;422;51.280;7.236;2023-02-24T12:42:02;3.30;1.00
871;DHT22;422;51.280;7.236;2023-02-24T12:44:38;3.10;1.00
871;DHT22;422;51.280;7.236;2023-02-24T12:47:10;3.10;1.00
871;DHT22;422;51.280;7.236;2023-02-24T12:49:57;3.10;99.90
871;DHT22;422;51.280;7.236;2023-02-24T12:52:42;3.20;1.00
871;DHT22;422;51.280;7.236;2023-02-24T12:55:18;3.20;1.00
871;DHT22;422;51.280;7.236;2023-02-24T12:57:54;3.20;1.00
871;DHT22;422;51.280;7.236;2023-02-24T13:00:38;3.20;1.00
871;DHT22;422;51.280;7.236;2023-02-24T13:03:24;3.30;1.00
871;DHT22;422;51.280;7.236;2023-02-24T13:06:01;3.40;65.60
871;DHT22;422;51.280;7.236;2023-02-24T13:08:38;3.40;1.00
871;DHT22;422;51.280;7.236;2023-02-24T13:11:20;3.30;1.00
871;DHT22;422;51.280;7.236;2023-02-24T13:13:55;3.30;1.00
871;DHT22;422;51.280;7.236;2023-02-24T13:16:29;3.40;1.00
871;DHT22;422;51.280;7.236;2023-02-24T13:19:05;3.40;1.00
871;DHT22;422;51.280;7.236;2023-02-24T13:21:52;3.40;1.00
871;DHT22;422;51.280;7.236;2023-02-24T13:24:29;3.50;1.00
871;DHT22;422;51.280;7.236;2023-02-24T13:27:20;3.40;1.00
871;DHT22;422;51.280;7.236;2023-02-24T13:29:49;3.50;41.60
871;DHT22;422;51.280;7.236;2023-02-24T13:32:26;3.30;1.00
871;DHT22;422;51.280;7.236;2023-02-24T13:34:55;3.20;1.00
871;DHT22;422;51.280;7.236;2023-02-24T13:37:32;3.30;35.10
871;DHT22;422;51.280;7.236;2023-02-24T13:40:16;3.20;79.80
871;DHT22;422;51.280;7.236;2023-02-24T13:42:58;3.30;99.90
871;DHT22;422;51.280;7.236;2023-02-24T13:45:27;3.30;99.90
871;DHT22;422;51.280;7.236;2023-02-24T13:48:20;3.30;99.90
871;DHT22;422;51.280;7.236;2023-02-24T13:51:12;3.30;99.90
871;DHT22;422;51.280;7.236;2023-02-24T13:54:05;3.20;99.90
871;DHT22;422;51.280;7.236;2023-02-24T13:57:02;3.20;99.90
871;DHT22;422;51.280;7.236;2023-02-24T13:59:45;3.20;99.90
871;DHT22;422;51.280;7.236;2023-02-24T14:02:17;3.20;99.90
871;DHT22;422;51.280;7.236;2023-02-24T14:04:47;3.20;99.90
871;DHT22;422;51.280;7.236;2023-02-24T14:07:20;3.20;99.90
871;DHT22;422;51.280;7.236;2023-02-24T14:09:51;3.20;99.90
871;DHT22;422;51.280;7.236;2023-02-24T14:12:22;3.30;99.90
871;DHT22;422;51.280;7.236;2023-02-24T14:14:52;3.20;99.90
871;DHT22;422;51.280;7.236;2023-02-24T14:17:22;3.20;99.90
871;DHT22;422;51.280;7.236;2023-02-24T14:19:54;3.20;99.90
871;DHT22;422;51.280;7.236;2023-02-24T14:22:21;3.30;99.90
871;DHT22;422;51.280;7.236;2023-02-24T14:24:48;3.30;99.90
871;DHT22;422;51.280;7.236;2023-02-24T14:27:21;3.20;99.90
871;DHT22;422;51.280;7.236;2023-02-24T14:29:52;3.20;99.90
871;DHT22;422;51.280;7.236;2023-02-24T14:32:20;3.20;99.90
871;DHT22;422;51.280;7.236;2023-02-24T14:34:48;3.30;99.90
871;DHT22;422;51.280;7.236;2023-02-24T14:37:16;3.30;99.90
871;DHT22;422;51.280;7.236;2023-02-24T14:39:51;3.30;99.90
871;DHT22;422;51.280;7.236;2023-02-24T14:42:19;3.30;99.90
871;DHT22;422;51.280;7.236;2023-02-24T14:44:48;3.30;99.90
871;DHT22;422;51.280;7.236;2023-02-24T14:47:20;3.30;99.90
871;DHT22;422;51.280;7.236;2023-02-24T14:49:52;3.30;99.90
871;DHT22;422;51.280;7.236;2023-02-24T14:52:25;3.40;99.90
871;DHT22;422;51.280;7.236;2023-02-24T14:54:55;3.40;99.90
871;DHT22;422;51.280;7.236;2023-02-24T14:57:25;3.40;99.90
871;DHT22;422;51.280;7.236;2023-02-24T14:59:55;3.40;99.90
871;DHT22;422;51.280;7.236;2023-02-24T15:02:29;3.40;99.90
871;DHT22;422;51.280;7.236;2023-02-24T15:04:59;3.50;99.90
871;DHT22;422;51.280;7.236;2023-02-24T15:07:28;3.50;99.90
871;DHT22;422;51.280;7.236;2023-02-24T15:09:58;3.60;99.90
871;DHT22;422;51.280;7.236;2023-02-24T15:12:29;3.60;99.90
871;DHT22;422;51.280;7.236;2023-02-24T15:15:02;3.60;99.90
871;DHT22;422;51.280;7.236;2023-02-24T15:17:32;3.70;99.90
871;DHT22;422;51.280;7.236;2023-02-24T15:19:59;3.70;99.90
871;DHT22;422;51.280;7.236;2023-02-24T15:22:27;3.70;99.90
871;DHT22;422;51.280;7.236;2023-02-24T15:25:12;3.70;99.90
871;DHT22;422;51.280;7.236;2023-02-24T15:27:48;3.70;99.90
871;DHT22;422;51.280;7.236;2023-02-24T15:30:30;3.70;99.90
871;DHT22;422;51.280;7.236;2023-02-24T15:33:02;3.80;99.90
871;DHT22;422;51.280;7.236;2023-02-24T15:35:31;3.70;99.90
871;DHT22;422;51.280;7.236;2023-02-24T15:37:59;3.80;99.90
871;DHT22;422;51.280;7.236;2023-02-24T15:40:28;3.80;99.90
871;DHT22;422;51.280;7.236;2023-02-24T15:42:58;3.80;99.90
871;DHT22;422;51.280;7.236;2023-02-24T15:45:30;3.80;99.90
871;DHT22;422;51.280;7.236;2023-02-24T15:48:01;4.00;99.90
871;DHT22;422;51.280;7.236;2023-02-24T15:50:29;4.00;99.90
871;DHT22;422;51.280;7.236;2023-02-24T15:52:59;4.10;99.90
871;DHT22;422;51.280;7.236;2023-02-24T15:55:27;4.10;99.90
871;DHT22;422;51.280;7.236;2023-02-24T15:57:56;4.10;99.90
871;DHT22;422;51.280;7.236;2023-02-24T16:00:25;4.20;99.90
871;DHT22;422;51.280;7.236;2023-02-24T16:02:52;4.10;99.90
871;DHT22;422;51.280;7.236;2023-02-24T16:05:21;4.10;99.90
871;DHT22;422;51.280;7.236;2023-02-24T16:07:48;4.20;99.90
871;DHT22;422;51.280;7.236;2023-02-24T16:10:18;4.10;99.90
871;DHT22;422;51.280;7.236;2023-02-24T16:12:49;4.20;99.90
871;DHT22;422;51.280;7.236;2023-02-24T16:15:21;4.20;99.90
871;DHT22;422;51.280;7.236;2023-02-24T16:17:50;4.20;99.90
871;DHT22;422;51.280;7.236;2023-02-24T16:20:21;4.20;99.90
871;DHT22;422;51.280;7.236;2023-02-24T16:22:56;4.20;99.90
871;DHT22;422;51.280;7.236;2023-02-24T16:25:24;4.20;99.90
871;DHT22;422;51.280;7.236;2023-02-24T16:27:53;4.20;99.90
871;DHT22;422;51.280;7.236;2023-02-24T16:30:24;4.20;99.90
871;DHT22;422;51.280;7.236;2023-02-24T16:32:54;4.20;99.90
871;DHT22;422;51.280;7.236;2023-02-24T16:35:23;4.30;99.90
871;DHT22;422;51.280;7.236;2023-02-24T16:37:51;4.20;99.90
871;DHT22;422;51.280;7.236;2023-02-24T16:40:21;4.30;99.90
871;DHT22;422;51.280;7.236;2023-02-24T16:42:50;4.20;99.90
871;DHT22;422;51.280;7.236;2023-02-24T16:45:18;4.30;99.90
871;DHT22;422;51.280;7.236;2023-02-24T16:47:46;4.30;99.90
871;DHT22;422;51.280;7.236;2023-02-24T16:50:20;4.30;99.90
871;DHT22;422;51.280;7.236;2023-02-24T16:52:49;4.40;99.90
871;DHT22;422;51.280;7.236;2023-02-24T16:55:17;4.40;99.90
871;DHT22;422;51.280;7.236;2023-02-24T16:57:44;4.40;99.90
871;DHT22;422;51.280;7.236;2023-02-24T17:00:13;4.40;99.90
871;DHT22;422;51.280;7.236;2023-02-24T17:02:43;4.50;99.90
871;DHT22;422;51.280;7.236;2023-02-24T17:05:18;4.50;99.90
871;DHT22;422;51.280;7.236;2023-02-24T17:07:46;4.40;99.90
871;DHT22;422;51.280;7.236;2023-02-24T17:10:16;4.50;99.90
871;DHT22;422;51.280;7.236;2023-02-24T17:12:44;4.50;99.90
871;DHT22;422;51.280;7.236;2023-02-24T17:15:13;4.50;99.90
871;DHT22;422;51.280;7.236;2023-02-24T17:17:41;4.50;99.90
871;DHT22;422;51.280;7.236;2023-02-24T17:20:10;4.50;99.90
871;DHT22;422;51.280;7.236;2023-02-24T17:22:37;4.50;99.90
871;DHT22;422;51.280;7.236;2023-02-24T17:25:05;4.50;99.90
871;DHT22;422;51.280;7.236;2023-02-24T17:27:34;4.50;99.90
871;DHT22;422;51.280;7.236;2023-02-24T17:30:02;4.50;99.90
871;DHT22;422;51.280;7.236;2023-02-24T17:32:29;4.60;99.90
871;DHT22;422;51.280;7.236;2023-02-24T17:34:57;4.50;99.90
871;DHT22;422;51.280;7.236;2023-02-24T17:37:24;4.60;99.90